Time;durP1;ratioP1;P1;durP2;ratioP2;P2;SDS_P1;SDS_P2;PMS_P1;PMS_P2;Temp;Humidity;BMP_temperature;BMP_pressure;BME280_temperature;BME280_humidity;BME280_pressure;Samples;Min_cycle;Max_cycle;Signal;HPM_P1;HPM_P2
2022/05/30 00:00:38;;;;;;;5.22;1.02;;;14.00;99.90;;;;;;5071526;28;20059;-75
2022/05/30 00:03:06;;;;;;;1.00;0.40;;;14.00;99.90;;;;;;5072784;28;20099;-75
2022/05/30 00:05:33;;;;;;;0.50;0.10;;;14.10;99.90;;;;;;5071326;28;20046;-73
2022/05/30 00:08:01;;;;;;;1.63;0.63;;;14.10;99.90;;;;;;5071402;28;20047;-74
2022/05/30 00:10:29;;;;;;;1.70;0.20;;;14.20;99.90;;;;;;5072901;28;20025;-73
2022/05/30 00:12:56;;;;;;;1.48;0.30;;;14.10;99.90;;;;;;5072647;28;20082;-72
2022/05/30 00:15:24;;;;;;;1.02;0.20;;;14.20;99.90;;;;;;5072876;28;20028;-75
2022/05/30 00:17:55;;;;;;;0.45;0.15;;;14.10;99.90;;;;;;5072724;28;20047;-73
2022/05/30 00:20:23;;;;;;;0.52;0.20;;;14.10;99.90;;;;;;5072520;28;20021;-72
2022/05/30 00:22:50;;;;;;;0.65;0.10;;;14.30;99.90;;;;;;5072743;28;20056;-72
2022/05/30 00:25:18;;;;;;;0.80;0.20;;;14.20;99.90;;;;;;5072674;28;20427;-72
2022/05/30 00:27:46;;;;;;;1.33;0.30;;;14.20;99.90;;;;;;5072844;28;20029;-72
2022/05/30 00:30:15;;;;;;;1.08;0.20;;;14.10;99.90;;;;;;5071336;28;20077;-73
2022/05/30 00:32:42;;;;;;;0.80;0.32;;;14.10;99.90;;;;;;5072744;28;20050;-72
2022/05/30 00:35:11;;;;;;;0.85;0.22;;;14.20;99.90;;;;;;5072290;28;20059;-74
2022/05/30 00:37:38;;;;;;;3.47;0.30;;;14.40;99.90;;;;;;5072648;28;20533;-73
2022/05/30 00:40:07;;;;;;;1.10;0.20;;;14.50;99.90;;;;;;5071285;28;20119;-74
2022/05/30 00:42:35;;;;;;;0.50;0.30;;;14.60;99.90;;;;;;5072696;28;20032;-72
2022/05/30 00:45:02;;;;;;;1.17;0.47;;;14.70;99.90;;;;;;5072410;28;20028;-72
2022/05/30 00:47:29;;;;;;;1.23;0.20;;;14.80;99.90;;;;;;5071145;28;20059;-73
2022/05/30 00:49:57;;;;;;;1.40;0.30;;;14.60;99.90;;;;;;5072522;28;20444;-74
2022/05/30 00:52:32;;;;;;;1.60;0.20;;;14.40;99.90;;;;;;5072254;28;20031;-74
2022/05/30 00:55:19;;;;;;;0.20;0.20;;;14.30;99.90;;;;;;5072396;28;20024;-74
2022/05/30 00:57:47;;;;;;;2.80;0.90;;;14.10;99.90;;;;;;5072416;28;20028;-75
2022/05/30 01:00:21;;;;;;;1.70;0.30;;;14.00;99.90;;;;;;5072406;28;20082;-74
2022/05/30 01:06:30;;;;;;;3.28;0.80;;;14.00;99.90;;;;;;5072444;28;20357;-75
2022/05/30 01:08:29;;;;;;;3.00;0.50;;;14.10;99.90;;;;;;5072359;28;20473;-74
2022/05/30 01:10:57;;;;;;;1.13;0.40;;;14.00;99.90;;;;;;5072445;28;20419;-74
2022/05/30 01:13:28;;;;;;;2.78;0.50;;;14.00;99.90;;;;;;5072206;28;20039;-75
2022/05/30 01:15:56;;;;;;;1.52;0.40;;;14.00;99.90;;;;;;5072001;28;20389;-74
2022/05/30 01:18:47;;;;;;;1.45;0.20;;;13.90;99.90;;;;;;5072314;28;20020;-73
2022/05/30 01:21:47;;;;;;;0.45;0.20;;;13.70;99.90;;;;;;5072331;28;20099;-76
2022/05/30 01:24:24;;;;;;;1.75;0.20;;;13.50;99.90;;;;;;5070838;28;20028;-72
2022/05/30 01:27:33;;;;;;;0.85;0.20;;;13.40;99.90;;;;;;5072314;28;20095;-72
2022/05/30 01:30:06;;;;;;;1.67;0.30;;;13.30;99.90;;;;;;5052769;28;20036;-72
2022/05/30 01:32:33;;;;;;;1.35;0.30;;;13.40;99.90;;;;;;5073417;28;20035;-72
2022/05/30 01:35:00;;;;;;;1.15;0.30;;;13.30;99.90;;;;;;5075428;28;20112;-73
2022/05/30 01:37:27;;;;;;;7.60;0.90;;;13.30;99.90;;;;;;5075630;28;20473;-73
2022/05/30 01:39:55;;;;;;;1.75;0.30;;;13.30;99.90;;;;;;5075490;28;20028;-73
2022/05/30 01:42:22;;;;;;;1.10;0.50;;;13.20;99.90;;;;;;5074176;28;20028;-73
2022/05/30 01:44:50;;;;;;;1.67;0.30;;;13.20;99.90;;;;;;5075484;28;20016;-73
2022/05/30 01:47:17;;;;;;;1.17;0.32;;;13.20;99.90;;;;;;5075340;28;20024;-73
2022/05/30 01:49:44;;;;;;;1.63;0.50;;;13.20;99.90;;;;;;5074285;28;20120;-73
2022/05/30 01:52:12;;;;;;;1.70;0.40;;;13.20;99.90;;;;;;5075314;28;20081;-74
2022/05/30 01:54:39;;;;;;;1.45;0.45;;;13.20;99.90;;;;;;5074268;28;20028;-75
2022/05/30 01:57:06;;;;;;;1.20;0.30;;;13.10;99.90;;;;;;5075328;28;20024;-75
2022/05/30 01:59:34;;;;;;;1.67;0.20;;;13.10;99.90;;;;;;5074020;28;20071;-79
2022/05/30 02:02:01;;;;;;;0.95;0.20;;;13.20;99.90;;;;;;5075069;28;20028;-76
2022/05/30 02:04:28;;;;;;;1.33;0.60;;;13.40;99.90;;;;;;5075030;28;20016;-74
2022/05/30 02:06:56;;;;;;;4.57;0.80;;;13.80;99.90;;;;;;5075445;28;20476;-74
2022/05/30 02:09:23;;;;;;;2.25;0.68;;;14.20;99.90;;;;;;5074889;28;20081;-74
2022/05/30 02:11:51;;;;;;;0.52;0.20;;;14.60;99.90;;;;;;5074857;28;20060;-73
2022/05/30 02:14:18;;;;;;;2.03;0.40;;;14.90;99.90;;;;;;5074994;28;20062;-73
2022/05/30 02:17:00;;;;;;;1.73;0.35;;;15.20;99.90;;;;;;5074946;28;20025;-74
2022/05/30 02:19:34;;;;;;;1.15;0.20;;;15.20;99.90;;;;;;5075293;28;20025;-74
2022/05/30 02:22:02;;;;;;;0.70;0.20;;;15.20;99.90;;;;;;5074874;28;20016;-75
2022/05/30 02:24:30;;;;;;;0.30;0.20;;;15.20;99.90;;;;;;5073487;28;20481;-74
2022/05/30 02:26:58;;;;;;;0.80;0.20;;;15.20;99.90;;;;;;5074736;28;20028;-74
2022/05/30 02:29:25;;;;;;;1.40;0.30;;;15.30;99.90;;;;;;5074700;28;20068;-74
2022/05/30 02:31:52;;;;;;;0.73;0.30;;;15.30;99.90;;;;;;5074615;28;20020;-74
2022/05/30 02:37:05;;;;;;;1.52;0.30;;;16.00;99.90;;;;;;5074643;28;20051;-74
2022/05/30 02:39:32;;;;;;;2.70;0.43;;;16.20;99.90;;;;;;5074385;28;20059;-76
2022/05/30 02:42:00;;;;;;;1.80;0.38;;;16.00;99.90;;;;;;5074545;28;20024;-75
2022/05/30 02:44:27;;;;;;;2.80;2.30;;;15.90;99.90;;;;;;5072994;28;20074;-75
2022/05/30 02:46:58;;;;;;;0.98;0.50;;;16.00;99.90;;;;;;5072899;28;20027;-72
2022/05/30 02:49:27;;;;;;;1.25;0.30;;;15.80;99.90;;;;;;5074647;28;20100;-72
2022/05/30 02:51:55;;;;;;;1.92;0.40;;;15.80;99.90;;;;;;5074302;28;20021;-72
2022/05/30 02:54:23;;;;;;;1.15;0.47;;;15.60;99.90;;;;;;5072990;28;20033;-72
2022/05/30 02:56:52;;;;;;;0.63;0.50;;;15.50;99.90;;;;;;5074871;28;20530;-73
2022/05/30 02:59:20;;;;;;;0.60;0.30;;;15.50;99.90;;;;;;5074048;28;20534;-72
2022/05/30 03:01:47;;;;;;;0.40;0.40;;;15.30;99.90;;;;;;5074167;28;20020;-72
2022/05/30 03:04:15;;;;;;;0.60;0.30;;;15.30;99.90;;;;;;5073088;28;20017;-72
2022/05/30 03:06:43;;;;;;;1.60;0.40;;;15.30;99.90;;;;;;5074016;28;20427;-72
2022/05/30 03:09:12;;;;;;;1.65;0.43;;;15.30;99.90;;;;;;5073700;28;20043;-72
2022/05/30 03:11:40;;;;;;;0.75;0.20;;;15.40;99.90;;;;;;5073747;28;20024;-72
2022/05/30 03:14:07;;;;;;;1.35;0.50;;;15.30;99.90;;;;;;5072299;28;20028;-73
2022/05/30 03:16:34;;;;;;;1.05;0.50;;;15.40;99.90;;;;;;5072502;28;20115;-71
2022/05/30 03:19:02;;;;;;;1.90;0.47;;;15.20;99.90;;;;;;5073412;28;20068;-73
2022/05/30 03:21:29;;;;;;;3.45;0.60;;;15.30;99.90;;;;;;5073995;28;20369;-74
2022/05/30 03:23:58;;;;;;;2.85;0.80;;;15.40;99.90;;;;;;5073355;28;20023;-73
2022/05/30 03:26:25;;;;;;;0.70;0.47;;;15.60;99.90;;;;;;5072050;28;20020;-74
2022/05/30 03:28:52;;;;;;;2.65;0.47;;;15.80;99.90;;;;;;5071998;28;20025;-74
2022/05/30 03:31:20;;;;;;;2.78;0.52;;;16.10;99.90;;;;;;5072008;28;20036;-74
2022/05/30 03:33:47;;;;;;;1.77;0.60;;;15.90;99.90;;;;;;5072856;28;20562;-73
2022/05/30 03:36:20;;;;;;;1.27;0.50;;;15.60;99.90;;;;;;5071892;28;20103;-75
2022/05/30 03:38:47;;;;;;;15.73;1.65;;;15.70;99.90;;;;;;5073086;28;20473;-74
2022/05/30 03:41:15;;;;;;;5.88;0.82;;;15.80;99.90;;;;;;5073074;28;20024;-73
2022/05/30 03:43:45;;;;;;;1.02;0.50;;;15.90;99.90;;;;;;5073164;28;20051;-73
2022/05/30 03:46:12;;;;;;;7.47;0.90;;;15.90;99.90;;;;;;5073395;28;20020;-73
2022/05/30 03:48:40;;;;;;;5.38;0.82;;;16.00;99.90;;;;;;5073098;28;20052;-73
2022/05/30 03:51:14;;;;;;;2.72;1.00;;;16.00;99.90;;;;;;5071700;28;20496;-72
2022/05/30 03:53:42;;;;;;;1.25;0.40;;;15.90;99.90;;;;;;5073540;28;20025;-73
2022/05/30 03:56:11;;;;;;;2.55;0.98;;;15.80;99.90;;;;;;5072541;28;20095;-73
2022/05/30 03:58:39;;;;;;;1.85;0.60;;;15.80;99.90;;;;;;5072988;28;20016;-73
2022/05/30 04:01:08;;;;;;;2.03;0.50;;;15.70;99.90;;;;;;5072798;28;20043;-73
2022/05/30 04:03:36;;;;;;;1.55;0.50;;;15.60;99.90;;;;;;5072886;28;20048;-73
2022/05/30 04:06:04;;;;;;;2.42;0.55;;;15.60;99.90;;;;;;5071489;28;20557;-72
2022/05/30 06:02:56;;;;;;;2.70;0.80;;;13.90;99.90;;;;;;5090477;27;20379;-73
2022/05/30 06:05:25;;;;;;;2.92;1.00;;;13.60;99.90;;;;;;5090620;28;20051;-74
2022/05/30 06:07:53;;;;;;;3.83;1.20;;;13.60;99.90;;;;;;5089169;28;20020;-73
2022/05/30 06:10:21;;;;;;;2.67;1.27;;;13.60;99.90;;;;;;5089159;28;20020;-72
2022/05/30 06:12:48;;;;;;;3.20;0.98;;;13.60;99.90;;;;;;5090443;28;20027;-75
2022/05/30 06:15:19;;;;;;;5.35;1.00;;;13.60;99.90;;;;;;5089069;28;20032;-74
2022/05/30 06:17:47;;;;;;;4.47;1.17;;;13.60;99.90;;;;;;5088967;28;20033;-73
2022/05/30 06:20:17;;;;;;;6.82;1.52;;;13.50;99.90;;;;;;5090305;28;20055;-75
2022/05/30 06:22:44;;;;;;;4.97;1.40;;;13.50;99.90;;;;;;5090189;28;20065;-74
2022/05/30 06:25:12;;;;;;;3.17;1.10;;;13.40;99.90;;;;;;5090313;28;20028;-74
2022/05/30 06:27:39;;;;;;;4.53;1.10;;;13.40;99.90;;;;;;5088649;28;20020;-72
2022/05/30 06:30:07;;;;;;;3.72;1.23;;;13.50;99.90;;;;;;5090172;28;20051;-73
2022/05/30 06:32:35;;;;;;;4.00;1.25;;;13.40;99.90;;;;;;5090035;28;20386;-74
2022/05/30 06:35:02;;;;;;;4.50;1.58;;;13.40;99.90;;;;;;5089887;28;20548;-73
2022/05/30 06:37:29;;;;;;;3.55;1.48;;;13.30;99.90;;;;;;5089936;28;20035;-75
2022/05/30 06:39:57;;;;;;;2.55;0.95;;;13.30;99.90;;;;;;5088437;28;20066;-74
2022/05/30 06:42:24;;;;;;;3.03;1.40;;;13.20;99.90;;;;;;5089649;28;20030;-75
2022/05/30 06:44:52;;;;;;;3.45;1.20;;;13.20;99.90;;;;;;5089776;28;20016;-74
2022/05/30 06:47:19;;;;;;;5.28;1.20;;;13.10;99.90;;;;;;5088462;28;20111;-73
2022/05/30 06:49:46;;;;;;;4.95;1.17;;;13.20;99.90;;;;;;5089828;28;20408;-73
2022/05/30 06:52:14;;;;;;;4.43;1.10;;;13.10;99.90;;;;;;5092552;28;20023;-74
2022/05/30 06:54:41;;;;;;;2.95;1.73;;;13.10;99.90;;;;;;5110044;28;20034;-75
2022/05/30 06:59:55;;;;;;;3.58;1.58;;;13.10;99.90;;;;;;5109963;28;20026;-73
2022/05/30 07:02:22;;;;;;;5.22;3.28;;;13.10;99.90;;;;;;5109706;28;20040;-73
2022/05/30 07:04:49;;;;;;;5.30;1.48;;;;;;;;;;5110262;28;20020;-71
2022/05/30 07:07:16;;;;;;;6.88;1.20;;;;;;;;;;5109854;28;20481;-74
2022/05/30 07:09:44;;;;;;;2.30;0.93;;;;;;;;;;5109807;28;20364;-72
2022/05/30 07:12:11;;;;;;;4.18;1.10;;;;;;;;;;5106683;28;20048;-73
2022/05/30 07:14:38;;;;;;;2.72;1.00;;;;;;;;;;5094544;28;20077;-73
2022/05/30 07:17:10;;;;;;;3.03;1.15;;;9.30;99.90;;;;;;5096078;28;20024;-71
2022/05/30 07:19:37;;;;;;;2.80;0.88;;;9.30;99.90;;;;;;5096048;28;20084;-72
2022/05/30 07:22:05;;;;;;;3.08;0.82;;;9.30;99.90;;;;;;5094636;28;20028;-74
2022/05/30 07:24:32;;;;;;;1.85;0.90;;;9.40;99.90;;;;;;5095921;28;20019;-73
2022/05/30 07:27:00;;;;;;;4.65;1.02;;;9.50;99.90;;;;;;5095964;28;20387;-74
2022/05/30 07:29:28;;;;;;;3.75;1.10;;;9.50;99.90;;;;;;5095891;28;20012;-75
2022/05/30 07:32:03;;;;;;;3.95;1.20;;;9.50;99.90;;;;;;5095796;28;20574;-74
2022/05/30 07:34:31;;;;;;;3.40;1.50;;;9.50;99.90;;;;;;5095790;28;20016;-75
2022/05/30 07:37:01;;;;;;;1.83;1.10;;;9.50;99.90;;;;;;5094399;28;20073;-74
2022/05/30 07:39:28;;;;;;;3.72;1.42;;;9.60;99.90;;;;;;5095738;28;20055;-75
2022/05/30 07:41:55;;;;;;;3.72;1.27;;;9.70;99.90;;;;;;5094150;28;20056;-74
2022/05/30 07:44:24;;;;;;;6.90;4.30;;;9.70;99.90;;;;;;5095604;28;20024;-74
2022/05/30 07:46:51;;;;;;;5.38;2.08;;;9.80;99.90;;;;;;5094131;28;20078;-74
2022/05/30 07:49:19;;;;;;;2.92;1.40;;;9.90;99.90;;;;;;5096179;28;20047;-73
2022/05/30 07:51:46;;;;;;;5.00;1.60;;;9.80;99.90;;;;;;5093923;28;20039;-73
2022/05/30 07:54:13;;;;;;;3.13;0.95;;;9.80;99.90;;;;;;5095445;28;20016;-74
2022/05/30 07:56:41;;;;;;;2.65;1.08;;;9.90;99.90;;;;;;5095283;28;20024;-75
2022/05/30 07:59:09;;;;;;;4.15;1.00;;;9.90;99.90;;;;;;5093846;28;20073;-75
2022/05/30 08:01:36;;;;;;;3.65;1.35;;;10.00;99.90;;;;;;5094990;28;20067;-74
2022/05/30 08:04:03;;;;;;;3.88;1.73;;;10.00;99.90;;;;;;5095209;28;20020;-75
2022/05/30 08:06:31;;;;;;;3.83;2.05;;;10.00;99.90;;;;;;5095190;28;20043;-74
2022/05/30 08:08:59;;;;;;;2.65;1.30;;;10.00;99.90;;;;;;5093664;28;20387;-75
2022/05/30 08:11:26;;;;;;;2.42;1.30;;;10.00;99.90;;;;;;5095040;28;20074;-74
2022/05/30 08:13:54;;;;;;;3.30;1.67;;;10.00;99.90;;;;;;5093536;28;20364;-74
2022/05/30 08:16:25;;;;;;;3.70;1.10;;;10.00;99.90;;;;;;5094794;28;20105;-75
2022/05/30 08:18:53;;;;;;;2.05;1.20;;;10.00;99.90;;;;;;5094872;28;20024;-73
2022/05/30 08:21:20;;;;;;;1.95;1.00;;;10.00;99.90;;;;;;5093218;28;20101;-73
2022/05/30 08:23:51;;;;;;;2.83;1.08;;;9.90;99.90;;;;;;5093045;28;20020;-74
2022/05/30 08:26:18;;;;;;;3.03;1.15;;;10.00;99.90;;;;;;5092839;28;20073;-74
2022/05/30 08:28:45;;;;;;;2.05;1.02;;;10.00;99.90;;;;;;5093211;28;20055;-72
2022/05/30 08:31:13;;;;;;;2.28;1.15;;;10.10;99.90;;;;;;5093117;28;20020;-74
2022/05/30 08:33:41;;;;;;;2.53;1.23;;;10.00;99.90;;;;;;5092672;28;20028;-73
2022/05/30 08:36:11;;;;;;;2.75;1.20;;;9.90;99.90;;;;;;5094690;28;20020;-73
2022/05/30 08:38:40;;;;;;;1.75;0.90;;;9.90;99.90;;;;;;5094480;28;20054;-74
2022/05/30 08:44:01;;;;;;;1.98;1.00;;;9.90;99.90;;;;;;5094764;28;20141;-73
2022/05/30 08:46:31;;;;;;;1.90;1.17;;;9.90;99.90;;;;;;5094331;28;20108;-73
2022/05/30 08:49:11;;;;;;;3.22;1.20;;;9.90;99.90;;;;;;5094805;28;20016;-73
2022/05/30 08:51:53;;;;;;;2.13;1.17;;;9.90;99.90;;;;;;5092854;28;20061;-74
2022/05/30 08:55:03;;;;;;;1.73;1.05;;;9.80;99.90;;;;;;5094700;28;20387;-73
2022/05/30 08:57:52;;;;;;;2.75;1.10;;;9.80;99.90;;;;;;5040248;28;20036;-74
2022/05/30 09:00:38;;;;;;;1.75;1.10;;;9.70;99.90;;;;;;5094108;28;20105;-74
2022/05/30 09:03:13;;;;;;;2.22;0.93;;;9.70;99.90;;;;;;5094226;28;20394;-74
2022/05/30 09:06:14;;;;;;;2.00;1.15;;;9.60;99.90;;;;;;5094041;28;20064;-74
2022/05/30 09:08:56;;;;;;;1.77;0.90;;;9.50;99.90;;;;;;5091670;28;20102;-74
2022/05/30 09:11:35;;;;;;;1.30;0.85;;;9.50;99.90;;;;;;5092575;28;20540;-72
2022/05/30 09:14:12;;;;;;;1.45;0.90;;;9.40;99.90;;;;;;5092302;28;20479;-75
2022/05/30 09:16:44;;;;;;;1.73;0.80;;;9.40;99.90;;;;;;5092319;28;20024;-75
2022/05/30 09:19:14;;;;;;;2.10;0.90;;;9.40;99.90;;;;;;5093982;28;20077;-76
2022/05/30 09:21:41;;;;;;;1.77;0.93;;;9.40;99.90;;;;;;5092235;28;20034;-76
2022/05/30 09:24:09;;;;;;;1.98;0.68;;;9.40;99.90;;;;;;5075470;28;20076;-75
2022/05/30 09:26:40;;;;;;;1.52;0.80;;;9.40;99.90;;;;;;5093071;28;20436;-75
2022/05/30 09:29:18;;;;;;;2.28;0.80;;;9.30;99.90;;;;;;5093534;28;20024;-76
2022/05/30 09:32:00;;;;;;;1.45;0.77;;;9.30;99.90;;;;;;5093469;28;20032;-76
2022/05/30 09:34:30;;;;;;;2.22;0.80;;;9.30;99.90;;;;;;5094171;28;20050;-76
2022/05/30 09:36:58;;;;;;;1.10;0.77;;;9.30;99.90;;;;;;5091740;28;20033;-75
2022/05/30 09:39:26;;;;;;;1.67;0.80;;;9.30;99.90;;;;;;5092062;28;20406;-75
2022/05/30 09:42:01;;;;;;;1.42;0.90;;;9.30;99.90;;;;;;5093256;28;20107;-74
2022/05/30 09:44:52;;;;;;;1.67;0.80;;;9.30;99.90;;;;;;5092059;28;20543;-74
2022/05/30 09:47:22;;;;;;;1.83;0.47;;;9.30;99.90;;;;;;5092442;28;20031;-75
2022/05/30 09:49:51;;;;;;;0.98;0.50;;;9.40;99.90;;;;;;5093448;28;20020;-75
2022/05/30 09:52:34;;;;;;;1.65;0.60;;;9.50;99.90;;;;;;5091892;28;20060;-74
2022/05/30 09:55:34;;;;;;;3.45;0.60;;;9.60;99.90;;;;;;5093572;28;20111;-75
2022/05/30 09:58:03;;;;;;;0.60;0.50;;;9.50;99.90;;;;;;5090890;28;20086;-74
2022/05/30 10:00:54;;;;;;;0.73;0.55;;;9.60;99.90;;;;;;5093904;28;20290;-76
2022/05/30 10:03:34;;;;;;;1.60;0.70;;;9.60;99.90;;;;;;5094071;28;20020;-75
2022/05/30 10:06:25;;;;;;;0.80;0.65;;;9.70;99.90;;;;;;5091970;28;20020;-76
2022/05/30 10:09:22;;;;;;;1.17;0.50;;;9.70;99.90;;;;;;5092019;28;20030;-75
2022/05/30 10:11:58;;;;;;;2.03;0.60;;;9.70;99.90;;;;;;5093947;28;20050;-74
2022/05/30 10:14:35;;;;;;;1.15;0.70;;;9.70;99.90;;;;;;5093424;28;20383;-75
2022/05/30 10:17:14;;;;;;;0.63;0.40;;;9.70;99.90;;;;;;5091955;28;20046;-75
2022/05/30 10:19:47;;;;;;;1.08;0.55;;;9.70;99.90;;;;;;5093161;28;20047;-75
2022/05/30 10:28:45;;;;;;;0.98;0.50;;;9.50;99.90;;;;;;5073490;28;20034;-75
2022/05/30 10:31:33;;;;;;;1.27;0.60;;;9.60;99.90;;;;;;5093203;28;20012;-75
2022/05/30 10:34:15;;;;;;;0.95;0.68;;;9.60;99.90;;;;;;5091810;28;20036;-75
2022/05/30 10:37:05;;;;;;;0.90;0.50;;;9.50;99.90;;;;;;5091763;28;20115;-75
2022/05/30 10:39:51;;;;;;;1.02;0.60;;;9.50;99.90;;;;;;5091663;28;20075;-74
2022/05/30 10:42:36;;;;;;;0.80;0.45;;;9.50;99.90;;;;;;5093517;28;20024;-75
2022/05/30 10:45:19;;;;;;;1.33;0.60;;;9.50;99.90;;;;;;5093598;28;20020;-75
2022/05/30 10:47:48;;;;;;;0.60;0.50;;;;;;;;;;5093981;28;20049;-75
2022/05/30 10:50:22;;;;;;;0.73;0.63;;;;;;;;;;5096436;28;20111;-75
2022/05/30 10:53:02;;;;;;;0.52;0.40;;;;;;;;;;5097048;28;20027;-75
2022/05/30 10:55:37;;;;;;;0.77;0.50;;;;;;;;;;5096805;28;20400;-76
2022/05/30 10:58:07;;;;;;;0.85;0.40;;;;;;;;;;5096890;28;20028;-76
2022/05/30 11:00:45;;;;;;;1.27;0.40;;;;;;;;;;5094196;28;20123;-76
2022/05/30 11:03:17;;;;;;;0.60;0.60;;;;;;;;;;5096636;28;20122;-76
2022/05/30 11:05:51;;;;;;;1.15;0.52;;;;;;;;;;5096690;28;20020;-75
2022/05/30 11:08:34;;;;;;;1.80;0.60;;;;;;;;;;5096623;28;20020;-76
2022/05/30 11:11:01;;;;;;;0.63;0.50;;;;;;;;;;5096593;28;20036;-76
2022/05/30 11:13:35;;;;;;;0.82;0.47;;;;;;;;;;5095134;28;20364;-76
2022/05/30 11:16:20;;;;;;;1.40;0.73;;;;;;;;;;5096696;28;20077;-76
2022/05/30 11:18:54;;;;;;;0.95;0.50;;;;;;;;;;5096884;28;20024;-75
2022/05/30 11:21:28;;;;;;;0.68;0.50;;;;;;;;;;5097740;28;20031;-76
2022/05/30 11:23:55;;;;;;;0.75;0.50;;;;;;;;;;5096713;28;20068;-76
2022/05/30 11:26:40;;;;;;;0.65;0.60;;;;;;;;;;5094578;28;20027;-75
2022/05/30 11:29:20;;;;;;;0.98;0.50;;;;;;;;;;5095901;28;20031;-76
2022/05/30 11:32:22;;;;;;;0.98;0.68;;;;;;;;;;5096214;28;20031;-75
2022/05/30 11:35:08;;;;;;;0.52;0.50;;;;;;;;;;5054176;28;20481;-77
2022/05/30 11:37:50;;;;;;;0.93;0.40;;;;;;;;;;5093270;28;20044;-75
2022/05/30 11:40:36;;;;;;;0.77;0.40;;;;;;;;;;5096097;28;20028;-76
2022/05/30 11:43:03;;;;;;;1.42;0.40;;;;;;;;;;5095951;28;20081;-76
2022/05/30 11:45:30;;;;;;;1.40;0.50;;;;;;;;;;5094539;28;20028;-75
2022/05/30 11:48:15;;;;;;;2.33;0.40;;;;;;;;;;5096233;28;20035;-75
2022/05/30 11:50:54;;;;;;;1.50;0.50;;;;;;;;;;5096680;28;20036;-76
2022/05/30 11:53:40;;;;;;;4.45;0.50;;;;;;;;;;5096470;28;20031;-75
2022/05/30 11:56:17;;;;;;;0.63;0.40;;;;;;;;;;5096146;28;20020;-76
2022/05/30 11:58:47;;;;;;;1.92;0.50;;;;;;;;;;5095933;28;20098;-76
2022/05/30 12:01:15;;;;;;;0.60;0.50;;;;;;;;;;5094061;28;20123;-77
2022/05/30 12:03:56;;;;;;;1.80;0.30;;;;;;;;;;5094056;28;20028;-76
2022/05/30 12:06:35;;;;;;;0.73;0.40;;;;;;;;;;5095516;28;20091;-76
2022/05/30 12:09:15;;;;;;;0.60;0.30;;;;;;;;;;5094093;28;20482;-77
2022/05/30 12:11:57;;;;;;;0.40;0.30;;;;;;;;;;5095579;28;20027;-75
2022/05/30 12:14:24;;;;;;;0.40;0.28;;;;;;;;;;5095700;28;20024;-76
2022/05/30 12:17:09;;;;;;;1.55;0.30;;;;;;;;;;5094063;28;20028;-77
2022/05/30 12:25:38;;;;;;;0.85;0.45;;;;;;;;;;5066112;28;20549;-76
2022/05/30 12:28:25;;;;;;;1.42;0.30;;;;;;;;;;5095061;28;20434;-76
2022/05/30 12:30:55;;;;;;;0.63;0.20;;;;;;;;;;5094813;28;20028;-76
2022/05/30 12:33:31;;;;;;;2.97;0.60;;;;;;;;;;5093317;28;20052;-74
2022/05/30 12:36:07;;;;;;;0.73;0.20;;;;;;;;;;5093141;28;20077;-75
2022/05/30 12:38:54;;;;;;;1.30;0.30;;;;;;;;;;5093104;28;20048;-75
2022/05/30 12:41:30;;;;;;;0.43;0.20;;;;;;;;;;5094546;28;20032;-76
2022/05/30 12:43:57;;;;;;;1.33;0.10;;;;;;;;;;5094511;28;20078;-76
2022/05/30 12:46:26;;;;;;;1.50;0.20;;;;;;;;;;5094425;28;20017;-75
2022/05/30 12:48:55;;;;;;;2.00;0.22;;;;;;;;;;5092967;28;20051;-75
2022/05/30 12:51:38;;;;;;;0.38;0.17;;;;;;;;;;5092792;28;20028;-76
2022/05/30 12:54:05;;;;;;;0.20;0.15;;;;;;;;;;5094168;28;20028;-74
2022/05/30 12:56:38;;;;;;;0.55;0.20;;;;;;;;;;5094192;28;20429;-75
2022/05/30 12:59:08;;;;;;;0.38;0.20;;;;;;;;;;5094313;28;20107;-75
2022/05/30 13:01:44;;;;;;;0.10;0.10;;;;;;;;;;5094265;28;20040;-76
2022/05/30 13:04:26;;;;;;;0.93;0.38;;;;;;;;;;5094116;28;20099;-75
2022/05/30 13:07:04;;;;;;;1.67;0.25;;;;;;;;;;5094100;28;20446;-74
2022/05/30 13:09:36;;;;;;;0.22;0.10;;;;;;;;;;5094255;28;20111;-75
2022/05/30 13:12:09;;;;;;;0.82;0.20;;;;;;;;;;5092104;28;20053;-74
2022/05/30 13:14:39;;;;;;;1.42;0.30;;;;;;;;;;5094125;28;20074;-74
2022/05/30 13:17:16;;;;;;;0.40;0.20;;;;;;;;;;5092507;28;20028;-75
2022/05/30 13:19:49;;;;;;;2.58;0.40;;;;;;;;;;5092484;28;20105;-74
2022/05/30 13:22:34;;;;;;;0.93;0.30;;;;;;;;;;5092294;28;20048;-75
2022/05/30 13:25:02;;;;;;;0.68;0.20;;;;;;;;;;5093858;28;20023;-74
2022/05/30 13:27:30;;;;;;;0.77;0.20;;;;;;;;;;5093880;28;20024;-75
2022/05/30 13:30:02;;;;;;;0.35;0.28;;;;;;;;;;5093699;28;20097;-74
2022/05/30 13:32:31;;;;;;;0.43;0.10;;;;;;;;;;5093953;28;20074;-74
2022/05/30 13:34:59;;;;;;;0.30;0.20;;;;;;;;;;5093541;28;20046;-75
2022/05/30 13:37:28;;;;;;;0.68;0.20;;;;;;;;;;5093692;28;20115;-74
2022/05/30 13:39:58;;;;;;;0.75;0.22;;;;;;;;;;5093481;28;20024;-74
2022/05/30 13:42:31;;;;;;;0.50;0.20;;;;;;;;;;5093810;28;20036;-75
2022/05/30 13:45:01;;;;;;;0.70;0.20;;;;;;;;;;5093678;28;20023;-75
2022/05/30 13:47:29;;;;;;;1.42;0.30;;;;;;;;;;5091953;28;20024;-76
2022/05/30 13:49:57;;;;;;;1.05;0.20;;;;;;;;;;5093648;28;20024;-75
2022/05/30 13:52:30;;;;;;;0.65;0.20;;;;;;;;;;5093383;28;20062;-75
2022/05/30 13:55:06;;;;;;;1.02;0.30;;;;;;;;;;5092311;28;20035;-75
2022/05/30 13:57:33;;;;;;;0.47;0.20;;;;;;;;;;5093606;28;20025;-75
2022/05/30 14:00:03;;;;;;;0.93;0.30;;;;;;;;;;5092051;28;20020;-75
2022/05/30 14:02:32;;;;;;;1.80;0.38;;;;;;;;;;5093559;28;20531;-76
2022/05/30 14:05:04;;;;;;;1.13;0.30;;;;;;;;;;5093551;28;20580;-76
2022/05/30 14:07:33;;;;;;;1.30;0.20;;;;;;;;;;5094127;28;20031;-76
2022/05/30 14:10:02;;;;;;;6.43;0.43;;;;;;;;;;5093749;28;20421;-75
2022/05/30 14:12:33;;;;;;;0.50;0.30;;;;;;;;;;5092095;28;20028;-75
2022/05/30 14:15:08;;;;;;;0.90;0.30;;;;;;;;;;5093554;28;20475;-76
2022/05/30 14:17:36;;;;;;;0.80;0.38;;;;;;;;;;5093422;28;20039;-76
2022/05/30 14:20:12;;;;;;;1.15;0.30;;;;;;;;;;5093644;28;20024;-75
2022/05/30 14:23:00;;;;;;;0.40;0.20;;;;;;;;;;5093976;28;20020;-75
2022/05/30 14:25:31;;;;;;;0.85;0.20;;;;;;;;;;5097838;28;20020;-74
2022/05/30 14:28:00;;;;;;;0.68;0.20;;;;;;;;;;5097172;28;20020;-75
2022/05/30 14:30:30;;;;;;;0.57;0.20;;;;;;;;;;5097051;28;20020;-76
2022/05/30 14:33:06;;;;;;;0.20;0.13;;;;;;;;;;5097181;28;20024;-76
2022/05/30 14:35:34;;;;;;;0.43;0.20;;;;;;;;;;5097291;28;20024;-75
2022/05/30 14:38:06;;;;;;;0.95;0.17;;;;;;;;;;5097016;28;20046;-75
2022/05/30 14:40:33;;;;;;;0.63;0.15;;;;;;;;;;5096943;28;20016;-76
2022/05/30 14:43:01;;;;;;;1.55;0.10;;;;;;;;;;5096801;28;20020;-76
2022/05/30 14:45:36;;;;;;;0.38;0.13;;;;;;;;;;5096794;28;20020;-75
2022/05/30 14:48:09;;;;;;;1.20;0.10;;;;;;;;;;5095362;28;20020;-74
2022/05/30 14:50:39;;;;;;;0.30;0.08;;;;;;;;;;5096960;28;20021;-76
2022/05/30 14:53:07;;;;;;;0.65;0.10;;;;;;;;;;5097000;28;20020;-76
2022/05/30 14:55:57;;;;;;;0.63;0.10;;;;;;;;;;5096665;28;20024;-75
2022/05/30 14:58:31;;;;;;;0.80;0.10;;;;;;;;;;5091076;28;20066;-75
2022/05/30 15:01:02;;;;;;;1.40;0.25;;;;;;;;;;5096277;28;20070;-75
2022/05/30 15:06:24;;;;;;;1.98;0.10;;;;;;;;;;5096337;28;20082;-75
2022/05/30 15:08:53;;;;;;;0.40;0.10;;;;;;;;;;5096664;28;20012;-75
2022/05/30 15:11:24;;;;;;;0.52;0.20;;;;;;;;;;5096562;28;20023;-76
2022/05/30 15:14:11;;;;;;;0.30;0.10;;;;;;;;;;5096452;28;20024;-75
2022/05/30 15:16:38;;;;;;;1.35;0.10;;;;;;;;;;5096353;28;20104;-75
2022/05/30 15:19:06;;;;;;;0.70;0.10;;;;;;;;;;5096387;28;20102;-74
2022/05/30 15:21:35;;;;;;;1.08;0.17;;;;;;;;;;5096067;28;20020;-74
2022/05/30 15:24:13;;;;;;;0.75;0.20;;;;;;;;;;5094685;28;20020;-75
2022/05/30 15:26:42;;;;;;;0.13;0.03;;;;;;;;;;5096183;28;20491;-74
2022/05/30 15:29:09;;;;;;;0.30;0.10;;;;;;;;;;5096202;28;20040;-75
2022/05/30 15:31:37;;;;;;;0.10;0.05;;;;;;;;;;5096077;28;20024;-77
2022/05/30 15:34:04;;;;;;;2.00;0.10;;;;;;;;;;5094085;28;20028;-75
2022/05/30 15:36:31;;;;;;;1.25;0.10;;;;;;;;;;5094383;28;20032;-74
2022/05/30 15:38:58;;;;;;;0.70;0.00;;;;;;;;;;5095839;28;20020;-74
2022/05/30 15:41:26;;;;;;;0.35;0.05;;;;;;;;;;5095623;28;20024;-75
2022/05/30 15:43:53;;;;;;;0.45;0.22;;;;;;;;;;5095679;28;20020;-75
2022/05/30 15:46:21;;;;;;;0.40;0.05;;;;;;;;;;5095883;28;20021;-75
2022/05/30 15:48:49;;;;;;;1.25;0.10;;;;;;;;;;5095885;28;20020;-75
2022/05/30 15:51:17;;;;;;;2.15;0.20;;;;;;;;;;5095691;28;20031;-75
2022/05/30 15:59:18;;;;;;;2.03;0.10;;;;;;;;;;5095329;28;20119;-75
2022/05/30 16:01:45;;;;;;;0.43;0.00;;;;;;;;;;5093630;28;20055;-75
2022/05/30 16:04:12;;;;;;;0.10;0.10;;;;;;;;;;5095256;28;20024;-75
2022/05/30 16:06:40;;;;;;;1.50;0.10;;;;;;;;;;5095260;28;20028;-75
2022/05/30 16:09:09;;;;;;;0.38;0.03;;;;;;;;;;5095095;28;20534;-76
2022/05/30 16:11:37;;;;;;;0.13;0.00;;;;;;;;;;5093795;28;20081;-75
2022/05/30 16:14:04;;;;;;;0.22;0.10;;;;;;;;;;5093700;28;20425;-75
2022/05/30 16:16:31;;;;;;;0.98;0.10;;;;;;;;;;5095070;28;20100;-75
2022/05/30 16:18:58;;;;;;;0.35;0.00;;;;;;;;;;5093563;28;20025;-76
2022/05/30 16:21:27;;;;;;;0.00;0.00;;;;;;;;;;5093440;28;20051;-74
2022/05/30 16:23:56;;;;;;;0.10;0.00;;;;;;;;;;5094806;28;20058;-75